sensor_id;sensor_type;location;lat;lon;timestamp;P1;P2;P0
61879;PMS7003;47817;52.798;27.544;2022-08-14T00:04:13;14.5;12.8;10
61879;PMS7003;47817;52.798;27.544;2022-08-14T00:09:13;17.4;14.8;10.8
61879;PMS7003;47817;52.798;27.544;2022-08-14T00:13:33;19.2;16.8;12.6
61879;PMS7003;47817;52.798;27.544;2022-08-14T00:18:55;20;15.8;12
61879;PMS7003;47817;52.798;27.544;2022-08-14T00:24:03;13;12.6;10.2
61879;PMS7003;47817;52.798;27.544;2022-08-14T00:29:15;15;12.6;9.6
61879;PMS7003;47817;52.798;27.544;2022-08-14T00:34:05;14.8;12.4;9.4
61879;PMS7003;47817;52.798;27.544;2022-08-14T00:39:15;16.4;14.8;11.6
61879;PMS7003;47817;52.798;27.544;2022-08-14T00:44:01;25.5;21.8;14.5
61879;PMS7003;47817;52.798;27.544;2022-08-14T00:49:05;16;13.6;10
61879;PMS7003;47817;52.798;27.544;2022-08-14T00:53:57;13.8;12.2;9.4
61879;PMS7003;47817;52.798;27.544;2022-08-14T00:58:41;14.2;13;10.2
61879;PMS7003;47817;52.798;27.544;2022-08-14T01:03:34;21.6;19;14.2
61879;PMS7003;47817;52.798;27.544;2022-08-14T01:08:45;16.4;13.6;10.2
61879;PMS7003;47817;52.798;27.544;2022-08-14T01:13:57;15.6;14;10.2
61879;PMS7003;47817;52.798;27.544;2022-08-14T01:19:13;14;13.5;10.3
61879;PMS7003;47817;52.798;27.544;2022-08-14T01:24:13;23.8;20;14.2
61879;PMS7003;47817;52.798;27.544;2022-08-14T01:28:46;18.6;16.2;11.2
61879;PMS7003;47817;52.798;27.544;2022-08-14T01:33:57;15.8;13.8;10.6
61879;PMS7003;47817;52.798;27.544;2022-08-14T01:39:16;13.6;12.2;9.2
61879;PMS7003;47817;52.798;27.544;2022-08-14T01:44:14;12.8;11.8;8.4
61879;PMS7003;47817;52.798;27.544;2022-08-14T01:48:33;14.4;13;9.6
61879;PMS7003;47817;52.798;27.544;2022-08-14T01:53:45;14.8;12;10
61879;PMS7003;47817;52.798;27.544;2022-08-14T01:58:44;13.8;12.2;9.2
61879;PMS7003;47817;52.798;27.544;2022-08-14T02:03:43;14.6;12.6;10
61879;PMS7003;47817;52.798;27.544;2022-08-14T02:08:51;17.8;14.8;10
61879;PMS7003;47817;52.798;27.544;2022-08-14T02:13:55;14.6;12.4;9.6
61879;PMS7003;47817;52.798;27.544;2022-08-14T02:18:58;15.4;12.6;9.8
61879;PMS7003;47817;52.798;27.544;2022-08-14T02:24:09;20.6;17.8;13.2
61879;PMS7003;47817;52.798;27.544;2022-08-14T02:28:33;20;17.4;12.6
61879;PMS7003;47817;52.798;27.544;2022-08-14T02:34:21;15.8;14.2;9.8
61879;PMS7003;47817;52.798;27.544;2022-08-14T02:39:09;13.2;12.2;9.2
61879;PMS7003;47817;52.798;27.544;2022-08-14T02:43:33;14.5;13.5;10
61879;PMS7003;47817;52.798;27.544;2022-08-14T02:48:34;18.2;15.8;11.2
61879;PMS7003;47817;52.798;27.544;2022-08-14T02:53:45;15;12.2;9.2
61879;PMS7003;47817;52.798;27.544;2022-08-14T02:59:22;15.6;12.4;9.2
61879;PMS7003;47817;52.798;27.544;2022-08-14T03:04:05;20.6;17.4;11.8
61879;PMS7003;47817;52.798;27.544;2022-08-14T03:09:17;13.2;11.6;9.2
61879;PMS7003;47817;52.798;27.544;2022-08-14T03:14:03;15.5;12.5;8.8
61879;PMS7003;47817;52.798;27.544;2022-08-14T03:19:07;13.8;12.2;8.2
61879;PMS7003;47817;52.798;27.544;2022-08-14T03:23:47;14.2;12;8.8
61879;PMS7003;47817;52.798;27.544;2022-08-14T03:28:55;13.6;12.4;9.2
61879;PMS7003;47817;52.798;27.544;2022-08-14T03:33:43;13.8;12.4;9.4
61879;PMS7003;47817;52.798;27.544;2022-08-14T03:38:44;14;12.4;9.6
61879;PMS7003;47817;52.798;27.544;2022-08-14T03:43:33;13.2;11.6;8.8
61879;PMS7003;47817;52.798;27.544;2022-08-14T03:49:20;12;11.2;8.2
61879;PMS7003;47817;52.798;27.544;2022-08-14T03:54:19;12.4;11.6;9
61879;PMS7003;47817;52.798;27.544;2022-08-14T03:58:54;12.4;11.6;9
61879;PMS7003;47817;52.798;27.544;2022-08-14T04:03:55;14.4;12.4;8.6
61879;PMS7003;47817;52.798;27.544;2022-08-14T04:09:19;14.2;11.4;8.8
61879;PMS7003;47817;52.798;27.544;2022-08-14T04:14:19;12.5;11;9
61879;PMS7003;47817;52.798;27.544;2022-08-14T04:18:42;14.8;11.8;8.8
61879;PMS7003;47817;52.798;27.544;2022-08-14T04:23:45;14;12.2;9.2
61879;PMS7003;47817;52.798;27.544;2022-08-14T04:28:33;12.8;11.4;8.6
61879;PMS7003;47817;52.798;27.544;2022-08-14T04:33:53;13.6;12.4;9.4
61879;PMS7003;47817;52.798;27.544;2022-08-14T04:39:05;14;13;9.4
61879;PMS7003;47817;52.798;27.544;2022-08-14T04:43:53;12.2;10.2;8.2
61879;PMS7003;47817;52.798;27.544;2022-08-14T04:49:03;13.3;11.8;8.5
61879;PMS7003;47817;52.798;27.544;2022-08-14T04:54:17;12.2;11;7.6
61879;PMS7003;47817;52.798;27.544;2022-08-14T04:59:19;13.2;12.2;8.6
61879;PMS7003;47817;52.798;27.544;2022-08-14T05:04:07;13.2;11.2;8.4
61879;PMS7003;47817;52.798;27.544;2022-08-14T05:09:19;13.6;11.2;8.2
61879;PMS7003;47817;52.798;27.544;2022-08-14T05:14:18;12.8;11.4;8.2
61879;PMS7003;47817;52.798;27.544;2022-08-14T05:18:34;12.3;10.8;8
61879;PMS7003;47817;52.798;27.544;2022-08-14T05:23:34;12.6;11;7.6
61879;PMS7003;47817;52.798;27.544;2022-08-14T05:29:01;13;10.2;8
61879;PMS7003;47817;52.798;27.544;2022-08-14T05:34:15;13;11.2;8.2
61879;PMS7003;47817;52.798;27.544;2022-08-14T05:38:55;12.8;11;8.4
61879;PMS7003;47817;52.798;27.544;2022-08-14T05:44:05;12.2;10.4;8.2
61879;PMS7003;47817;52.798;27.544;2022-08-14T05:48:54;13.2;11.4;8.4
61879;PMS7003;47817;52.798;27.544;2022-08-14T05:53:57;13;10.4;7.6
61879;PMS7003;47817;52.798;27.544;2022-08-14T05:58:57;11.6;9.8;7.4
61879;PMS7003;47817;52.798;27.544;2022-08-14T06:04:07;12.4;10.6;7.6
61879;PMS7003;47817;52.798;27.544;2022-08-14T06:08:55;10.5;9.3;7.3
61879;PMS7003;47817;52.798;27.544;2022-08-14T06:13:46;13.6;9.8;7.4
61879;PMS7003;47817;52.798;27.544;2022-08-14T06:18:51;12.6;9.6;7.4
61879;PMS7003;47817;52.798;27.544;2022-08-14T06:24:15;10.2;9.2;6.2
61879;PMS7003;47817;52.798;27.544;2022-08-14T06:29:05;11;9.4;7.6
61879;PMS7003;47817;52.798;27.544;2022-08-14T06:33:55;9.8;8.8;6.8
61879;PMS7003;47817;52.798;27.544;2022-08-14T06:38:53;12.3;10.3;7.8
61879;PMS7003;47817;52.798;27.544;2022-08-14T06:44:17;9.4;8.2;6.2
61879;PMS7003;47817;52.798;27.544;2022-08-14T06:49:17;9.2;8;5.6
61879;PMS7003;47817;52.798;27.544;2022-08-14T06:53:57;8.6;6.8;5.4
61879;PMS7003;47817;52.798;27.544;2022-08-14T06:58:45;7.2;6;4.4
61879;PMS7003;47817;52.798;27.544;2022-08-14T07:03:33;11.4;9;6.8
61879;PMS7003;47817;52.798;27.544;2022-08-14T07:09:09;8.8;7.6;5.4
61879;PMS7003;47817;52.798;27.544;2022-08-14T07:13:53;7.8;7.4;5.6
61879;PMS7003;47817;52.798;27.544;2022-08-14T07:18:57;9.4;7.8;5.6
61879;PMS7003;47817;52.798;27.544;2022-08-14T07:24:09;9;8.8;6.5
61879;PMS7003;47817;52.798;27.544;2022-08-14T07:29:19;8;7.8;6
61879;PMS7003;47817;52.798;27.544;2022-08-14T07:33:55;8;7;5.2
61879;PMS7003;47817;52.798;27.544;2022-08-14T07:39:19;9;8.4;6.6
61879;PMS7003;47817;52.798;27.544;2022-08-14T07:44:19;8.4;7.8;5.4
61879;PMS7003;47817;52.798;27.544;2022-08-14T07:48:53;9.2;7;5.4
61879;PMS7003;47817;52.798;27.544;2022-08-14T07:53:33;7;6;4.8
61879;PMS7003;47817;52.798;27.544;2022-08-14T07:59:07;7.8;6.4;4.8
61879;PMS7003;47817;52.798;27.544;2022-08-14T08:04:22;9.6;8.2;5.8
61879;PMS7003;47817;52.798;27.544;2022-08-14T08:09:07;9;7.6;5.8
61879;PMS7003;47817;52.798;27.544;2022-08-14T08:14:05;8;7;5.3
61879;PMS7003;47817;52.798;27.544;2022-08-14T08:19:03;9;7.8;5.8
61879;PMS7003;47817;52.798;27.544;2022-08-14T08:23:57;8.4;7.4;5.8
61879;PMS7003;47817;52.798;27.544;2022-08-14T08:28:57;7.8;7;5.6
61879;PMS7003;47817;52.798;27.544;2022-08-14T08:34:07;9;8;6
61879;PMS7003;47817;52.798;27.544;2022-08-14T08:38:43;7.5;7;5.8
61879;PMS7003;47817;52.798;27.544;2022-08-14T08:43:45;8;7.2;5.6
61879;PMS7003;47817;52.798;27.544;2022-08-14T08:48:50;9.8;8.4;6
61879;PMS7003;47817;52.798;27.544;2022-08-14T08:54:17;6.8;6;4.6
61879;PMS7003;47817;52.798;27.544;2022-08-14T08:59:23;7.8;6;4.4
61879;PMS7003;47817;52.798;27.544;2022-08-14T09:04:00;6.2;5.8;4
61879;PMS7003;47817;52.798;27.544;2022-08-14T09:08:45;6.4;5.4;3.8
61879;PMS7003;47817;52.798;27.544;2022-08-14T09:14:05;5.6;5;3.8
61879;PMS7003;47817;52.798;27.544;2022-08-14T09:19:19;6.4;4.8;4
61879;PMS7003;47817;52.798;27.544;2022-08-14T09:23:33;6.6;5.4;3.8
61879;PMS7003;47817;52.798;27.544;2022-08-14T09:28:45;4.5;4.5;3.5
61879;PMS7003;47817;52.798;27.544;2022-08-14T09:33:45;6.6;5.2;4.4
61879;PMS7003;47817;52.798;27.544;2022-08-14T09:39:02;6;5.2;4.4
61879;PMS7003;47817;52.798;27.544;2022-08-14T09:43:42;5.8;5;3.8
61879;PMS7003;47817;52.798;27.544;2022-08-14T09:48:59;6.6;5;4.2
61879;PMS7003;47817;52.798;27.544;2022-08-14T09:54:02;6;5.2;4.6
61879;PMS7003;47817;52.798;27.544;2022-08-14T09:59:09;6.6;5.6;3.8
61879;PMS7003;47817;52.798;27.544;2022-08-14T10:03:55;4.6;4.2;3.4
61879;PMS7003;47817;52.798;27.544;2022-08-14T10:09:19;5.5;5.3;4.3
61879;PMS7003;47817;52.798;27.544;2022-08-14T10:14:12;5.6;4.4;3.8
61879;PMS7003;47817;52.798;27.544;2022-08-14T10:18:43;5.8;5;4
61879;PMS7003;47817;52.798;27.544;2022-08-14T10:23:46;6.2;4.6;3.8
61879;PMS7003;47817;52.798;27.544;2022-08-14T10:28:47;5.4;4.6;4
61879;PMS7003;47817;52.798;27.544;2022-08-14T10:34:08;6.4;4.4;3.8
61879;PMS7003;47817;52.798;27.544;2022-08-14T10:39:14;5.6;4.2;3.6
61879;PMS7003;47817;52.798;27.544;2022-08-14T10:44:20;5.8;3.8;3
61879;PMS7003;47817;52.798;27.544;2022-08-14T10:48:59;6;5.2;3.8
61879;PMS7003;47817;52.798;27.544;2022-08-14T10:53:57;5.2;4;3
61879;PMS7003;47817;52.798;27.544;2022-08-14T10:58:45;5.8;5.4;3.8
61879;PMS7003;47817;52.798;27.544;2022-08-14T11:04:05;4.2;4.2;3.4
61879;PMS7003;47817;52.798;27.544;2022-08-14T11:08:46;6;5.2;4
61879;PMS7003;47817;52.798;27.544;2022-08-14T11:13:33;5.8;4.8;4
61879;PMS7003;47817;52.798;27.544;2022-08-14T11:18:33;4.6;3.8;3
61879;PMS7003;47817;52.798;27.544;2022-08-14T11:24:17;4.2;3.8;3
61879;PMS7003;47817;52.798;27.544;2022-08-14T11:29:17;5.8;4.4;4
61879;PMS7003;47817;52.798;27.544;2022-08-14T11:33:55;4;3.3;3
61879;PMS7003;47817;52.798;27.544;2022-08-14T11:38:53;5.8;4.6;3.8
61879;PMS7003;47817;52.798;27.544;2022-08-14T11:44:19;6.4;4.4;3.6
61879;PMS7003;47817;52.798;27.544;2022-08-14T11:49:27;4.8;4.2;3.6
61879;PMS7003;47817;52.798;27.544;2022-08-14T11:54:01;5;3.8;3.2
61879;PMS7003;47817;52.798;27.544;2022-08-14T11:58:35;3.6;3.4;2.6
61879;PMS7003;47817;52.798;27.544;2022-08-14T12:03:41;4.8;4.3;3.5
61879;PMS7003;47817;52.798;27.544;2022-08-14T12:08:34;5.2;4.4;3.4
61879;PMS7003;47817;52.798;27.544;2022-08-14T12:13:34;4.6;4.4;3
61879;PMS7003;47817;52.798;27.544;2022-08-14T12:18:51;4.2;3.8;3.2
61879;PMS7003;47817;52.798;27.544;2022-08-14T12:24:05;4.6;3.8;3.2
61879;PMS7003;47817;52.798;27.544;2022-08-14T12:29:09;6.2;4.6;3.4
61879;PMS7003;47817;52.798;27.544;2022-08-14T12:34:19;6.4;5.4;4.2
61879;PMS7003;47817;52.798;27.544;2022-08-14T12:39:22;4.5;4;3.8
61879;PMS7003;47817;52.798;27.544;2022-08-14T12:44:27;5;4.6;3.2
61879;PMS7003;47817;52.798;27.544;2022-08-14T12:49:15;5.8;4.4;3.2
61879;PMS7003;47817;52.798;27.544;2022-08-14T12:53:46;4.2;3.8;2.8
61879;PMS7003;47817;52.798;27.544;2022-08-14T12:58:33;3.6;3.6;2.8
61879;PMS7003;47817;52.798;27.544;2022-08-14T13:04:14;5;4.6;4
61879;PMS7003;47817;52.798;27.544;2022-08-14T13:09:19;5.8;4.6;4
61879;PMS7003;47817;52.798;27.544;2022-08-14T13:14:07;5;4.6;4
61879;PMS7003;47817;52.798;27.544;2022-08-14T13:19:03;5.2;4.2;3.6
61879;PMS7003;47817;52.798;27.544;2022-08-14T13:23:35;4.2;3.8;3.2
61879;PMS7003;47817;52.798;27.544;2022-08-14T13:28:57;4.4;4.2;3.8
61879;PMS7003;47817;52.798;27.544;2022-08-14T13:33:57;4.2;4;3
61879;PMS7003;47817;52.798;27.544;2022-08-14T13:38:59;4.3;3.3;2.3
61879;PMS7003;47817;52.798;27.544;2022-08-14T13:43:45;5.4;3.8;2.8
61879;PMS7003;47817;52.798;27.544;2022-08-14T13:48:33;5.6;4.8;4
61879;PMS7003;47817;52.798;27.544;2022-08-14T13:53:54;5.4;5.4;4.4
61879;PMS7003;47817;52.798;27.544;2022-08-14T13:59:17;5;4.6;3.8
61879;PMS7003;47817;52.798;27.544;2022-08-14T14:04:05;5.6;4.8;4.2
61879;PMS7003;47817;52.798;27.544;2022-08-14T14:08:55;5.3;5;3.8
61879;PMS7003;47817;52.798;27.544;2022-08-14T14:13:33;5.6;5;4.2
61879;PMS7003;47817;52.798;27.544;2022-08-14T14:19:05;5.8;4.8;4.2
61879;PMS7003;47817;52.798;27.544;2022-08-14T14:24:17;6.2;5;4.4
61879;PMS7003;47817;52.798;27.544;2022-08-14T14:28:56;5.4;5.2;3.8
61879;PMS7003;47817;52.798;27.544;2022-08-14T14:33:34;4.6;4;2.8
61879;PMS7003;47817;52.798;27.544;2022-08-14T14:39:04;4;4;3.5
61879;PMS7003;47817;52.798;27.544;2022-08-14T14:44:04;5.8;4.4;3.6
61879;PMS7003;47817;52.798;27.544;2022-08-14T14:48:33;6.4;4.8;4
61879;PMS7003;47817;52.798;27.544;2022-08-14T14:53:44;5;4.6;3.6
61879;PMS7003;47817;52.798;27.544;2022-08-14T14:59:05;5;4.2;3.2
61879;PMS7003;47817;52.798;27.544;2022-08-14T15:04:15;5.6;5;4.2
61879;PMS7003;47817;52.798;27.544;2022-08-14T15:09:03;5.6;4.8;4
61879;PMS7003;47817;52.798;27.544;2022-08-14T15:14:15;5.2;5.2;4.2
61879;PMS7003;47817;52.798;27.544;2022-08-14T15:19:11;6;5.2;3.8
61879;PMS7003;47817;52.798;27.544;2022-08-14T15:23:33;5.4;4.6;3.4
61879;PMS7003;47817;52.798;27.544;2022-08-14T15:28:43;6.2;4.2;3.8
61879;PMS7003;47817;52.798;27.544;2022-08-14T15:34:04;5;4.5;3.5
61879;PMS7003;47817;52.798;27.544;2022-08-14T15:39:15;6;5.4;4
61879;PMS7003;47817;52.798;27.544;2022-08-14T15:44:05;5;4;3.4
61879;PMS7003;47817;52.798;27.544;2022-08-14T15:49:01;5.8;5.4;4.4
61879;PMS7003;47817;52.798;27.544;2022-08-14T15:54:05;5.4;4.2;3.4
61879;PMS7003;47817;52.798;27.544;2022-08-14T15:58:55;4.4;4.2;3.8
61879;PMS7003;47817;52.798;27.544;2022-08-14T16:03:55;6.5;5;4
61879;PMS7003;47817;52.798;27.544;2022-08-14T16:09:05;5;4.8;3.8
61879;PMS7003;47817;52.798;27.544;2022-08-14T16:13:45;5;4.6;4
61879;PMS7003;47817;52.798;27.544;2022-08-14T16:18:51;4.6;3.8;3.2
61879;PMS7003;47817;52.798;27.544;2022-08-14T16:23:51;5.6;4.6;3.8
61879;PMS7003;47817;52.798;27.544;2022-08-14T16:29:17;6.4;5.2;4.2
61879;PMS7003;47817;52.798;27.544;2022-08-14T16:34:17;5.4;4.4;3.4
61879;PMS7003;47817;52.798;27.544;2022-08-14T16:38:56;5.4;5.2;4.2
61879;PMS7003;47817;52.798;27.544;2022-08-14T16:43:33;6.3;5.3;4
61879;PMS7003;47817;52.798;27.544;2022-08-14T16:49:03;6.4;5.2;4.6
61879;PMS7003;47817;52.798;27.544;2022-08-14T16:54:15;5.8;5.6;4.6
61879;PMS7003;47817;52.798;27.544;2022-08-14T16:59:12;6.6;5.8;4.6
61879;PMS7003;47817;52.798;27.544;2022-08-14T17:03:53;6;5.2;4.4
61879;PMS7003;47817;52.798;27.544;2022-08-14T17:08:43;5;4.8;4
61879;PMS7003;47817;52.798;27.544;2022-08-14T17:13:33;6.6;6.2;4.8
61879;PMS7003;47817;52.798;27.544;2022-08-14T17:18:37;8.8;7.6;6.2
61879;PMS7003;47817;52.798;27.544;2022-08-14T17:23:43;6.8;6;5
61879;PMS7003;47817;52.798;27.544;2022-08-14T17:29:09;6.6;5.6;4.8
61879;PMS7003;47817;52.798;27.544;2022-08-14T17:34:12;7.8;6.4;4.8
61879;PMS7003;47817;52.798;27.544;2022-08-14T17:38:34;6;5.3;4.5
61879;PMS7003;47817;52.798;27.544;2022-08-14T17:44:23;5.8;5.2;4.2
61879;PMS7003;47817;52.798;27.544;2022-08-14T17:49:06;8.8;6.4;4.8
61879;PMS7003;47817;52.798;27.544;2022-08-14T17:53:33;7.8;6.2;4.8
61879;PMS7003;47817;52.798;27.544;2022-08-14T17:58:33;6.4;5.8;5
61879;PMS7003;47817;52.798;27.544;2022-08-14T18:03:33;7.4;5.8;4.2
61879;PMS7003;47817;52.798;27.544;2022-08-14T18:09:17;8;7.3;5
61879;PMS7003;47817;52.798;27.544;2022-08-14T18:14:04;9.6;8;6.4
61879;PMS7003;47817;52.798;27.544;2022-08-14T18:19:19;10.8;8.4;6.8
61879;PMS7003;47817;52.798;27.544;2022-08-14T18:24:05;9.8;7.6;6
61879;PMS7003;47817;52.798;27.544;2022-08-14T18:29:09;9.6;8.4;6.4
61879;PMS7003;47817;52.798;27.544;2022-08-14T18:33:33;14.2;12.6;8.8
61879;PMS7003;47817;52.798;27.544;2022-08-14T18:39:23;9;7.8;6.4
61879;PMS7003;47817;52.798;27.544;2022-08-14T18:43:41;10.8;9.2;6.4
61879;PMS7003;47817;52.798;27.544;2022-08-14T18:48:43;9.5;8;6
61879;PMS7003;47817;52.798;27.544;2022-08-14T18:54:01;9.8;8.6;6.6
61879;PMS7003;47817;52.798;27.544;2022-08-14T18:59:28;11.6;10.2;7.4
61879;PMS7003;47817;52.798;27.544;2022-08-14T19:04:35;10.8;9.2;6.8
61879;PMS7003;47817;52.798;27.544;2022-08-14T19:08:49;12;10;7.8
61879;PMS7003;47817;52.798;27.544;2022-08-14T19:13:55;13.4;9.6;7.4
61879;PMS7003;47817;52.798;27.544;2022-08-14T19:18:59;11.4;8.8;6.8
61879;PMS7003;47817;52.798;27.544;2022-08-14T19:24:23;11.6;9.4;6.8
61879;PMS7003;47817;52.798;27.544;2022-08-14T19:28:57;8;6.4;4.6
61879;PMS7003;47817;52.798;27.544;2022-08-14T19:33:49;7.8;6.3;5
61879;PMS7003;47817;52.798;27.544;2022-08-14T19:38:57;7.6;6.4;5
61879;PMS7003;47817;52.798;27.544;2022-08-14T19:43:33;10.2;9;6.4
61879;PMS7003;47817;52.798;27.544;2022-08-14T19:48:51;7.8;7;5.4
61879;PMS7003;47817;52.798;27.544;2022-08-14T19:53:47;8;7.2;5.4
61879;PMS7003;47817;52.798;27.544;2022-08-14T19:59:14;8.2;6.6;5.2
61879;PMS7003;47817;52.798;27.544;2022-08-14T20:04:12;8;7.3;5
61879;PMS7003;47817;52.798;27.544;2022-08-14T20:08:43;7.4;6;4.2
61879;PMS7003;47817;52.798;27.544;2022-08-14T20:14:20;8.4;6.4;5
61879;PMS7003;47817;52.798;27.544;2022-08-14T20:19:08;8.8;7.3;5.8
61879;PMS7003;47817;52.798;27.544;2022-08-14T20:23:43;11.8;11;7.6
61879;PMS7003;47817;52.798;27.544;2022-08-14T20:28:53;15.2;12.8;9.2
61879;PMS7003;47817;52.798;27.544;2022-08-14T20:33:33;9.6;7.6;5.4
61879;PMS7003;47817;52.798;27.544;2022-08-14T20:39:08;8.4;7.4;6
61879;PMS7003;47817;52.798;27.544;2022-08-14T20:44:21;6.6;6.6;5.2
61879;PMS7003;47817;52.798;27.544;2022-08-14T20:49:25;8.5;7.3;5.5
61879;PMS7003;47817;52.798;27.544;2022-08-14T20:54:06;7.8;6.2;5.2
61879;PMS7003;47817;52.798;27.544;2022-08-14T20:59:24;7.6;6.8;5
61879;PMS7003;47817;52.798;27.544;2022-08-14T21:03:58;9.8;8.4;6.4
61879;PMS7003;47817;52.798;27.544;2022-08-14T21:08:33;7.8;7.2;5.4
61879;PMS7003;47817;52.798;27.544;2022-08-14T21:14:07;8.2;6.8;5
61879;PMS7003;47817;52.798;27.544;2022-08-14T21:18:34;8.4;6.6;5.2
61879;PMS7003;47817;52.798;27.544;2022-08-14T21:23:56;7.4;6.4;4.6
61879;PMS7003;47817;52.798;27.544;2022-08-14T21:28:51;7.8;6.6;5
61879;PMS7003;47817;52.798;27.544;2022-08-14T21:34:19;8.6;6.8;5.2
61879;PMS7003;47817;52.798;27.544;2022-08-14T21:39:07;7.5;6.3;4.8
61879;PMS7003;47817;52.798;27.544;2022-08-14T21:43:43;8.4;6.4;4.6
61879;PMS7003;47817;52.798;27.544;2022-08-14T21:48:53;7.8;6.6;4.8
61879;PMS7003;47817;52.798;27.544;2022-08-14T21:54:17;8.4;6.8;5
61879;PMS7003;47817;52.798;27.544;2022-08-14T21:59:19;7.8;7.2;5.8
61879;PMS7003;47817;52.798;27.544;2022-08-14T22:03:43;9;6.8;5.4
61879;PMS7003;47817;52.798;27.544;2022-08-14T22:09:20;8;7.2;5.2
61879;PMS7003;47817;52.798;27.544;2022-08-14T22:13:43;8;6;4.5
61879;PMS7003;47817;52.798;27.544;2022-08-14T22:19:07;9.4;8.2;5.8
61879;PMS7003;47817;52.798;27.544;2022-08-14T22:23:51;8.4;7.6;5.6
61879;PMS7003;47817;52.798;27.544;2022-08-14T22:28:51;9.4;7.6;5.8
61879;PMS7003;47817;52.798;27.544;2022-08-14T22:34:10;8;7.4;5.6
61879;PMS7003;47817;52.798;27.544;2022-08-14T22:39:19;9.2;7.4;5.8
61879;PMS7003;47817;52.798;27.544;2022-08-14T22:44:09;8.2;7.4;5.2
61879;PMS7003;47817;52.798;27.544;2022-08-14T22:49:16;7.2;6.8;5
61879;PMS7003;47817;52.798;27.544;2022-08-14T22:54:07;7.8;6.8;5.2
61879;PMS7003;47817;52.798;27.544;2022-08-14T22:58:43;8.5;7.8;6
61879;PMS7003;47817;52.798;27.544;2022-08-14T23:03:33;9;7.8;5.8
61879;PMS7003;47817;52.798;27.544;2022-08-14T23:09:05;8.8;7.8;5.6
61879;PMS7003;47817;52.798;27.544;2022-08-14T23:14:04;9.6;8.2;5.8
61879;PMS7003;47817;52.798;27.544;2022-08-14T23:19:02;8.2;7.4;5.6
61879;PMS7003;47817;52.798;27.544;2022-08-14T23:23:59;7.6;6.4;5.2
61879;PMS7003;47817;52.798;27.544;2022-08-14T23:29:02;8.6;7;4.8
61879;PMS7003;47817;52.798;27.544;2022-08-14T23:33:33;6.6;6.4;4.8
61879;PMS7003;47817;52.798;27.544;2022-08-14T23:38:34;7.8;7.2;5.6
61879;PMS7003;47817;52.798;27.544;2022-08-14T23:44:04;8.5;7.8;5.3
61879;PMS7003;47817;52.798;27.544;2022-08-14T23:48:43;7.8;6.8;5.2
61879;PMS7003;47817;52.798;27.544;2022-08-14T23:53:46;8.4;7.2;5.8
61879;PMS7003;47817;52.798;27.544;2022-08-14T23:58:48;8;7.4;6
